Vermillion, South Dakota
Current Conditions -  °F | °C
As of 12:55 PM on Monday 20 Oct 2014 (Local Time) from KYKN Reporting Station
Clear Clear  
Wind Chill: 19°   Ceiling: Unl
Heat Index: 19°   Visibility: 10mi
Dew Point:   Wind: 3mph
Humidity: 37%   Direction: 280°W
Pressure: 30.1"   Gusts: NA
Location:  42.79°N, 96.93°W
Report Text: KYKN 201755Z AUTO 28003KT 10SM CLR 19/04 A3010 RMK AO1 10190 20040 57007
Loading
Personal Weather Stations






























Interactive Weather Map
Tropical Storm Tracking
New forecast layout! Learn more

10-Day Weather Forecast

Advertisements
Track Severe Weather on mobile